Time;durP1;ratioP1;P1;durP2;ratioP2;P2;SDS_P1;SDS_P2;PMS_P1;PMS_P2;Temp;Humidity;BMP_temperature;BMP_pressure;BME280_temperature;BME280_humidity;BME280_pressure;Samples;Min_cycle;Max_cycle;Signal;HPM_P1;HPM_P2
2023/11/06 00:02:36;;;;;;;9.02;2.28;;;;;;;9.98;100.00;99222.22;5098590;28;20084;-63
2023/11/06 00:05:25;;;;;;;5.38;2.08;;;;;;;9.98;100.00;99224.97;5112210;28;20114;-64
2023/11/06 00:08:14;;;;;;;7.68;2.30;;;;;;;10.02;100.00;99228.69;5114840;28;20419;-64
2023/11/06 00:11:03;;;;;;;5.53;2.10;;;;;;;10.02;100.00;99234.13;5128192;28;20044;-64
2023/11/06 00:13:51;;;;;;;6.15;2.15;;;;;;;10.00;100.00;99228.19;5130618;27;20054;-63
2023/11/06 00:16:39;;;;;;;6.65;2.13;;;;;;;9.98;100.00;99242.09;5117308;28;20383;-64
2023/11/06 00:19:27;;;;;;;5.65;1.83;;;;;;;9.97;100.00;99231.53;5106633;28;20165;-63
2023/11/06 00:22:17;;;;;;;6.38;2.33;;;;;;;9.98;100.00;99239.38;5121873;28;20035;-63
2023/11/06 00:25:06;;;;;;;5.65;2.10;;;;;;;9.97;100.00;99242.41;5079945;28;20170;-63
2023/11/06 00:27:55;;;;;;;7.80;2.22;;;;;;;9.96;100.00;99240.81;5120871;27;20118;-65
2023/11/06 00:30:44;;;;;;;9.70;2.35;;;;;;;9.95;100.00;99250.84;5136272;27;20043;-65
2023/11/06 00:33:32;;;;;;;7.28;2.15;;;;;;;9.94;100.00;99243.00;5119517;27;20051;-64
2023/11/06 00:36:24;;;;;;;6.15;1.98;;;;;;;9.94;100.00;99248.47;5089648;28;20036;-63
2023/11/06 00:39:13;;;;;;;5.03;2.00;;;;;;;9.95;100.00;99263.66;5100152;28;20053;-64
2023/11/06 00:42:01;;;;;;;5.35;2.00;;;;;;;9.95;100.00;99271.81;5113163;28;20043;-63
2023/11/06 00:44:48;;;;;;;4.53;1.98;;;;;;;9.92;100.00;99272.44;5084569;28;20043;-63
2023/11/06 00:47:36;;;;;;;4.28;2.00;;;;;;;9.91;100.00;99279.78;5086103;28;20594;-63
2023/11/06 00:50:25;;;;;;;5.03;1.85;;;;;;;9.87;100.00;99281.50;5080483;28;20043;-63
2023/11/06 00:53:13;;;;;;;4.10;1.58;;;;;;;9.85;100.00;99286.44;5096154;28;20043;-63
2023/11/06 00:56:02;;;;;;;4.32;1.70;;;;;;;9.85;100.00;99285.63;5086692;28;20062;-63
2023/11/06 00:58:50;;;;;;;5.20;1.77;;;;;;;9.85;100.00;99293.78;5087487;28;20038;-63
2023/11/06 01:01:38;;;;;;;4.00;1.60;;;;;;;9.84;100.00;99298.44;5111871;28;20430;-63
2023/11/06 01:04:26;;;;;;;3.92;1.50;;;;;;;9.86;100.00;99306.28;5100052;28;20051;-64
2023/11/06 01:07:14;;;;;;;4.82;1.90;;;;;;;9.85;100.00;99307.38;5104837;27;20049;-64
2023/11/06 01:10:03;;;;;;;5.47;1.85;;;;;;;9.82;100.00;99306.06;5114695;28;20124;-63
2023/11/06 01:12:51;;;;;;;6.25;1.65;;;;;;;9.80;100.00;99303.66;5113554;28;20043;-63
2023/11/06 01:15:39;;;;;;;3.35;1.15;;;;;;;9.79;100.00;99303.97;5100601;28;20044;-64
2023/11/06 01:18:27;;;;;;;5.30;1.95;;;;;;;9.78;100.00;99311.28;5108938;27;20168;-65
2023/11/06 01:21:15;;;;;;;4.43;1.90;;;;;;;9.78;100.00;99322.19;5128473;27;20130;-64
2023/11/06 01:24:04;;;;;;;3.17;1.42;;;;;;;9.80;100.00;99319.97;5099855;28;20475;-64
2023/11/06 01:26:52;;;;;;;1.92;1.27;;;;;;;9.81;100.00;99318.88;5061286;28;20039;-64
2023/11/06 01:29:40;;;;;;;3.58;1.77;;;;;;;9.81;100.00;99332.47;5081963;28;20046;-63
2023/11/06 01:32:28;;;;;;;6.72;2.10;;;;;;;9.80;100.00;99336.28;5098613;28;20067;-63
2023/11/06 01:35:19;;;;;;;3.75;1.75;;;;;;;9.76;100.00;99340.72;5100745;28;20058;-64
2023/11/06 01:38:08;;;;;;;7.20;2.08;;;;;;;9.77;100.00;99346.97;5083256;28;20039;-63
2023/11/06 01:40:56;;;;;;;6.20;2.15;;;;;;;9.77;100.00;99353.22;5107215;27;20379;-64
2023/11/06 01:43:44;;;;;;;5.13;1.95;;;;;;;9.78;100.00;99356.72;5099435;28;20054;-63
2023/11/06 01:46:33;;;;;;;8.93;2.70;;;;;;;9.78;100.00;99357.53;5099047;28;20089;-63
2023/11/06 01:49:21;;;;;;;5.80;1.95;;;;;;;9.77;100.00;99361.38;5107698;27;20187;-63
2023/11/06 01:52:12;;;;;;;7.00;2.63;;;;;;;9.76;100.00;99362.47;5105798;28;20391;-63
2023/11/06 01:55:00;;;;;;;8.75;2.55;;;;;;;9.78;100.00;99364.91;5097643;28;20059;-64
2023/11/06 01:57:49;;;;;;;6.97;2.38;;;;;;;9.73;100.00;99363.06;5113013;28;20051;-63
2023/11/06 02:00:38;;;;;;;6.28;2.10;;;;;;;9.73;100.00;99365.78;5082397;28;20032;-63
2023/11/06 02:03:26;;;;;;;7.07;2.53;;;;;;;9.73;100.00;99370.44;5097979;28;20118;-63
2023/11/06 02:06:15;;;;;;;9.18;2.88;;;;;;;9.73;100.00;99376.66;5094375;28;20048;-63
2023/11/06 02:09:03;;;;;;;8.27;2.83;;;;;;;9.77;100.00;99376.91;5140762;27;20051;-63
2023/11/06 02:11:51;;;;;;;7.82;2.08;;;;;;;9.74;100.00;99381.03;5056126;28;20047;-63
2023/11/06 02:14:50;;;;;;;6.80;2.25;;;;;;;9.76;100.00;99383.44;5066583;28;20411;-63
2023/11/06 02:17:38;;;;;;;8.38;2.65;;;;;;;9.76;100.00;99394.31;5094929;28;20048;-63
2023/11/06 02:20:26;;;;;;;5.78;2.47;;;;;;;9.75;100.00;99389.97;5118859;27;20035;-63
2023/11/06 02:23:14;;;;;;;7.22;2.17;;;;;;;9.73;100.00;99397.63;5105382;27;20042;-63
2023/11/06 02:26:03;;;;;;;7.15;2.25;;;;;;;9.70;100.00;99407.19;5074340;28;20054;-63
2023/11/06 02:28:52;;;;;;;7.30;2.45;;;;;;;9.69;100.00;99410.19;5091867;28;20086;-63
2023/11/06 02:31:40;;;;;;;8.55;2.45;;;;;;;9.69;100.00;99410.19;5102689;28;20032;-63
2023/11/06 02:34:28;;;;;;;4.65;1.90;;;;;;;9.71;100.00;99411.50;5084424;28;20089;-63
2023/11/06 02:37:17;;;;;;;6.22;2.20;;;;;;;9.70;100.00;99415.34;5085241;28;20107;-63
2023/11/06 02:40:06;;;;;;;7.47;2.10;;;;;;;9.67;100.00;99415.94;5113100;28;20044;-64
2023/11/06 02:42:55;;;;;;;5.57;2.05;;;;;;;9.66;100.00;99419.75;5097391;28;20118;-63
2023/11/06 02:45:44;;;;;;;5.97;2.15;;;;;;;9.63;100.00;99431.22;5070166;28;20045;-63
2023/11/06 02:48:32;;;;;;;6.20;2.08;;;;;;;9.63;100.00;99433.97;5111896;28;20047;-64
2023/11/06 02:51:20;;;;;;;4.53;2.00;;;;;;;9.63;100.00;99427.72;5097596;28;20054;-64
2023/11/06 02:54:08;;;;;;;8.98;1.95;;;;;;;9.65;100.00;99433.66;5104589;27;20047;-64
2023/11/06 02:56:56;;;;;;;3.92;1.67;;;;;;;9.62;100.00;99440.50;5106022;28;20124;-63
2023/11/06 02:59:44;;;;;;;5.57;2.08;;;;;;;9.62;100.00;99440.50;5127533;28;20567;-62
2023/11/06 03:02:34;;;;;;;5.82;1.90;;;;;;;9.59;100.00;99446.53;5122310;28;20144;-64
2023/11/06 03:05:22;;;;;;;4.35;1.48;;;;;;;9.58;100.00;99447.63;5077778;28;20376;-64
2023/11/06 03:08:10;;;;;;;5.80;2.35;;;;;;;9.58;100.00;99447.63;5083156;28;20043;-62
2023/11/06 03:10:58;;;;;;;5.75;1.95;;;;;;;9.56;100.00;99456.06;5120256;28;20103;-64
2023/11/06 03:13:48;;;;;;;4.80;1.70;;;;;;;9.57;100.00;99456.88;5107887;28;20118;-63
2023/11/06 03:16:38;;;;;;;6.55;2.10;;;;;;;9.57;100.00;99465.03;5081553;28;20040;-64
2023/11/06 03:19:26;;;;;;;6.15;1.90;;;;;;;9.55;100.00;99468.06;5111351;28;20040;-64
2023/11/06 03:22:14;;;;;;;5.35;1.88;;;;;;;9.56;100.00;99472.38;5097082;28;20130;-64
2023/11/06 03:25:02;;;;;;;2.78;1.50;;;;;;;9.54;100.00;99471.06;5112808;28;20420;-64
2023/11/06 03:27:50;;;;;;;6.07;2.03;;;;;;;9.55;100.00;99476.22;5069012;28;20055;-64
2023/11/06 03:30:38;;;;;;;3.40;1.55;;;;;;;9.56;100.00;99482.47;5077048;28;20039;-64
2023/11/06 03:33:27;;;;;;;4.90;2.00;;;;;;;9.53;100.00;99477.63;5082316;28;20202;-64
2023/11/06 03:36:15;;;;;;;5.53;2.08;;;;;;;9.56;100.00;99482.47;5102075;28;20336;-64
2023/11/06 03:39:04;;;;;;;5.82;2.05;;;;;;;9.53;100.00;99483.06;5102863;28;20170;-63
2023/11/06 03:41:52;;;;;;;5.13;1.77;;;;;;;9.54;100.00;99490.09;5117192;28;20044;-63
2023/11/06 03:44:40;;;;;;;4.47;2.13;;;;;;;9.52;100.00;99486.88;5100574;28;20386;-63
2023/11/06 03:47:28;;;;;;;4.32;1.88;;;;;;;9.51;100.00;99491.50;5100725;28;20048;-63
2023/11/06 03:50:16;;;;;;;5.45;2.10;;;;;;;9.50;100.00;99497.22;5115915;28;20070;-63
2023/11/06 03:53:04;;;;;;;6.00;2.10;;;;;;;9.50;100.00;99503.50;5101530;28;20044;-63
2023/11/06 03:55:52;;;;;;;4.88;2.00;;;;;;;9.50;100.00;99505.38;5127116;27;20051;-65
2023/11/06 03:58:41;;;;;;;3.22;1.58;;;;;;;9.50;100.00;99508.09;5082488;28;20032;-63
2023/11/06 04:01:36;;;;;;;7.70;2.03;;;;;;;9.45;100.00;99508.16;5099338;28;20122;-63
2023/11/06 04:04:24;;;;;;;7.35;2.30;;;;;;;9.43;100.00;99516.63;5106664;28;20107;-63
2023/11/06 04:07:12;;;;;;;4.97;1.70;;;;;;;9.46;100.00;99520.69;5116700;28;20418;-64
2023/11/06 04:10:00;;;;;;;5.05;1.55;;;;;;;9.46;100.00;99521.47;5117752;28;20487;-63
2023/11/06 04:12:48;;;;;;;2.17;1.42;;;;;;;9.45;100.00;99522.56;5115889;28;20115;-64
2023/11/06 04:15:36;;;;;;;4.07;1.88;;;;;;;9.43;100.00;99527.50;5111147;28;20075;-64
2023/11/06 04:18:24;;;;;;;6.57;2.08;;;;;;;9.42;100.00;99528.59;5107574;28;20085;-63
2023/11/06 04:21:12;;;;;;;5.13;2.22;;;;;;;9.42;100.00;99530.50;5116088;28;20055;-64
2023/11/06 04:24:01;;;;;;;3.97;1.73;;;;;;;9.42;100.00;99533.22;5101269;28;20130;-65
2023/11/06 04:26:49;;;;;;;6.35;1.98;;;;;;;9.38;100.00;99531.09;5080923;28;20040;-63
2023/11/06 04:29:37;;;;;;;6.93;2.13;;;;;;;9.41;100.00;99537.88;5094733;27;20164;-64
2023/11/06 04:32:25;;;;;;;6.05;2.05;;;;;;;9.38;100.00;99543.91;5112348;27;20035;-63
2023/11/06 04:35:13;;;;;;;4.55;1.95;;;;;;;9.37;100.00;99534.09;5113605;27;20364;-64
2023/11/06 04:38:01;;;;;;;5.05;2.00;;;;;;;9.38;100.00;99541.97;5126095;27;20040;-63
2023/11/06 04:40:49;;;;;;;5.72;2.15;;;;;;;9.39;100.00;99549.03;5099208;28;20128;-64
2023/11/06 04:43:37;;;;;;;3.33;1.48;;;;;;;9.42;100.00;99550.34;5115349;28;20044;-64
2023/11/06 04:46:26;;;;;;;7.68;2.50;;;;;;;9.42;100.00;99558.50;5085242;28;20039;-64
2023/11/06 04:49:15;;;;;;;5.53;1.80;;;;;;;9.36;100.00;99565.91;5086151;28;20121;-65
2023/11/06 04:52:03;;;;;;;6.40;1.88;;;;;;;9.35;100.00;99564.28;5101252;28;20068;-64
2023/11/06 04:54:51;;;;;;;5.20;2.28;;;;;;;9.34;100.00;99557.25;5098821;28;20127;-64
2023/11/06 04:57:39;;;;;;;4.72;1.67;;;;;;;9.36;100.00;99574.06;5091971;28;20119;-64
2023/11/06 05:00:27;;;;;;;4.95;1.85;;;;;;;9.45;100.00;99570.69;5117779;28;20047;-64
2023/11/06 05:03:15;;;;;;;7.13;2.10;;;;;;;9.46;100.00;99577.78;5110185;28;20094;-64
2023/11/06 05:06:03;;;;;;;4.35;1.75;;;;;;;9.43;100.00;99571.00;5125579;27;20103;-64
2023/11/06 05:08:51;;;;;;;7.75;2.17;;;;;;;9.42;100.00;99579.44;5124728;27;20055;-64
2023/11/06 05:11:40;;;;;;;7.65;2.15;;;;;;;9.39;100.00;99584.38;5120844;28;20051;-64
2023/11/06 05:14:28;;;;;;;5.57;2.00;;;;;;;9.42;100.00;99590.31;5118405;28;20549;-65
2023/11/06 05:17:16;;;;;;;6.40;2.13;;;;;;;9.38;100.00;99588.19;5106456;28;20461;-64
2023/11/06 05:20:05;;;;;;;6.18;2.15;;;;;;;9.36;100.00;99597.75;5093784;28;20044;-63
2023/11/06 05:22:54;;;;;;;6.90;1.95;;;;;;;9.40;100.00;99606.91;5107537;28;20069;-62
2023/11/06 05:25:42;;;;;;;5.43;1.73;;;;;;;9.43;100.00;99597.38;5114194;28;20039;-63
2023/11/06 05:28:30;;;;;;;10.68;2.65;;;;;;;9.63;100.00;99599.84;5111461;27;20032;-61
2023/11/06 05:31:18;;;;;;;8.77;2.38;;;;;;;9.55;100.00;99612.19;5094915;28;20047;-61
2023/11/06 05:34:06;;;;;;;3.22;1.50;;;;;;;9.51;100.00;99618.50;5087679;28;20055;-62
2023/11/06 05:36:55;;;;;;;5.70;2.15;;;;;;;9.50;100.00;99614.13;5112599;28;20039;-61
2023/11/06 05:39:45;;;;;;;6.25;2.13;;;;;;;9.62;100.00;99606.41;5095963;28;20052;-62
2023/11/06 05:42:33;;;;;;;8.45;1.88;;;;;;;9.57;100.00;99606.44;5113574;28;20403;-62
2023/11/06 05:45:21;;;;;;;8.88;2.50;;;;;;;9.52;100.00;99617.38;5110217;27;20046;-63
2023/11/06 05:48:09;;;;;;;6.18;2.20;;;;;;;9.60;100.00;99608.59;5109717;28;20039;-62
2023/11/06 05:50:58;;;;;;;8.20;2.65;;;;;;;9.65;100.00;99616.69;5104668;28;20475;-63
2023/11/06 05:53:46;;;;;;;9.05;2.60;;;;;;;9.59;100.00;99617.84;5112593;28;20117;-60
2023/11/06 05:56:35;;;;;;;12.25;3.35;;;;;;;9.63;100.00;99624.31;4389620;28;10000715;-60
2023/11/06 05:59:23;;;;;;;9.00;3.20;;;;;;;9.63;100.00;99624.31;5120048;28;20050;-63
2023/11/06 06:02:11;;;;;;;11.02;3.17;;;;;;;9.58;100.00;99624.38;5124138;28;20046;-62
2023/11/06 06:04:59;;;;;;;22.38;4.10;;;;;;;9.64;100.00;99642.25;5083796;28;20495;-64
2023/11/06 06:07:47;;;;;;;12.60;3.55;;;;;;;9.64;100.00;99625.94;5099825;28;20047;-61
2023/11/06 06:10:35;;;;;;;12.02;3.65;;;;;;;9.65;100.00;99641.16;5110157;28;20036;-61
2023/11/06 06:13:23;;;;;;;14.23;3.70;;;;;;;9.57;100.00;99644.50;5110633;28;20039;-60
2023/11/06 06:16:13;;;;;;;12.20;3.67;;;;;;;9.68;100.00;99654.16;5110413;27;20205;-61
2023/11/06 06:19:05;;;;;;;14.73;3.80;;;;;;;9.78;100.00;99654.03;5058314;28;20044;-62
2023/11/06 06:21:53;;;;;;;10.23;3.42;;;;;;;9.65;100.00;99664.84;5073035;28;20087;-63
2023/11/06 06:24:42;;;;;;;13.70;3.95;;;;;;;9.65;100.00;99657.47;5089889;28;20161;-61
2023/11/06 06:27:30;;;;;;;12.90;3.35;;;;;;;9.76;100.00;99639.91;5102657;27;20032;-61
2023/11/06 06:30:18;;;;;;;13.85;3.67;;;;;;;9.79;100.00;99654.88;5104004;28;20130;-62
2023/11/06 06:33:06;;;;;;;14.95;3.63;;;;;;;9.80;100.00;99640.16;5108923;28;20389;-63
2023/11/06 06:35:54;;;;;;;12.32;3.63;;;;;;;9.81;100.00;99642.59;5095578;28;20051;-62
2023/11/06 06:38:43;;;;;;;11.68;3.60;;;;;;;9.56;100.00;99640.97;5101363;28;20050;-62
2023/11/06 06:41:31;;;;;;;16.10;4.05;;;;;;;9.68;100.00;99654.16;5099816;28;20040;-61
2023/11/06 06:44:19;;;;;;;10.00;3.30;;;;;;;9.63;100.00;99648.78;5109785;28;20044;-61
2023/11/06 06:47:08;;;;;;;15.38;3.72;;;;;;;9.65;100.00;99660.19;5094279;28;20050;-61
2023/11/06 06:49:56;;;;;;;14.60;3.10;;;;;;;9.72;100.00;99666.09;5102889;28;20161;-62
2023/11/06 06:52:44;;;;;;;14.10;3.50;;;;;;;9.59;100.00;99670.31;5109072;28;20144;-62
2023/11/06 06:55:32;;;;;;;18.60;4.28;;;;;;;9.69;100.00;99666.69;5106138;28;20044;-64
2023/11/06 06:58:21;;;;;;;15.50;4.38;;;;;;;9.63;100.00;99672.47;5086483;28;20122;-62
2023/11/06 07:01:09;;;;;;;13.25;3.47;;;;;;;9.68;100.00;99681.38;5083780;28;20086;-61
2023/11/06 07:03:57;;;;;;;12.73;3.90;;;;;;;9.66;100.00;99694.44;5103910;27;20043;-62
2023/11/06 07:06:47;;;;;;;14.98;3.80;;;;;;;9.68;100.00;99694.16;5110624;28;20044;-61
2023/11/06 07:09:36;;;;;;;15.38;4.22;;;;;;;9.63;100.00;99705.91;5097801;27;20050;-64
2023/11/06 07:12:24;;;;;;;11.02;3.22;;;;;;;9.54;100.00;99704.91;5064021;28;20186;-62
2023/11/06 07:15:12;;;;;;;14.98;4.47;;;;;;;9.70;100.00;99700.13;5085357;28;20051;-64
2023/11/06 07:18:01;;;;;;;12.48;3.90;;;;;;;9.71;100.00;99710.69;5118921;28;20403;-62
2023/11/06 07:20:49;;;;;;;12.32;3.78;;;;;;;9.70;100.00;99711.00;5104413;28;20058;-63
2023/11/06 07:23:38;;;;;;;12.52;3.83;;;;;;;9.80;100.00;99711.69;5126704;28;20089;-62
2023/11/06 07:26:27;;;;;;;12.52;3.30;;;;;;;9.68;100.00;99727.59;5128108;28;20077;-63
2023/11/06 07:29:15;;;;;;;14.68;3.70;;;;;;;9.87;100.00;99718.69;5128539;28;20111;-62
2023/11/06 07:32:05;;;;;;;13.65;3.60;;;;;;;9.68;100.00;99724.88;5122619;28;20043;-62
2023/11/06 07:34:53;;;;;;;14.65;4.20;;;;;;;9.55;100.00;99731.03;5115751;28;20066;-63
2023/11/06 07:37:41;;;;;;;33.97;8.80;;;;;;;9.52;100.00;99726.94;5127575;28;20498;-62
2023/11/06 07:40:29;;;;;;;35.97;8.88;;;;;;;9.57;100.00;99728.81;5110076;28;20040;-62
2023/11/06 07:43:17;;;;;;;37.42;9.20;;;;;;;9.69;100.00;99729.25;5103576;28;20044;-63
2023/11/06 07:46:05;;;;;;;24.70;7.25;;;;;;;9.68;100.00;99733.03;5118508;28;20403;-62
2023/11/06 07:48:53;;;;;;;25.35;5.75;;;;;;;9.77;100.00;99739.47;5104163;28;20047;-62
2023/11/06 07:51:41;;;;;;;39.15;10.93;;;;;;;9.92;100.00;99734.97;5121968;28;20048;-62
2023/11/06 07:54:29;;;;;;;14.85;4.30;;;;;;;9.83;100.00;99742.94;5114699;28;20035;-61
2023/11/06 07:57:18;;;;;;;15.65;3.88;;;;;;;9.52;100.00;99754.13;5103280;28;20050;-63
2023/11/06 08:00:12;;;;;;;17.55;4.50;;;;;;;9.43;100.00;99755.06;5114834;28;20418;-62
2023/11/06 08:03:00;;;;;;;15.30;4.03;;;;;;;9.41;100.00;99752.63;5119498;28;20066;-61
2023/11/06 08:05:49;;;;;;;16.65;3.97;;;;;;;9.46;100.00;99757.22;5117957;28;20044;-61
2023/11/06 08:08:39;;;;;;;18.98;5.35;;;;;;;9.60;100.00;99766.31;5118656;28;20415;-63
2023/11/06 08:11:27;;;;;;;20.98;4.95;;;;;;;9.73;100.00;99770.25;5117846;28;20047;-61
2023/11/06 08:14:15;;;;;;;24.60;5.70;;;;;;;9.75;100.00;99768.88;5101279;28;20043;-64
2023/11/06 08:17:04;;;;;;;25.42;6.78;;;;;;;9.89;100.00;99763.56;5103813;28;20032;-63
2023/11/06 08:19:52;;;;;;;22.80;5.90;;;;;;;9.91;100.00;99765.97;5100967;28;20431;-63
2023/11/06 08:22:40;;;;;;;31.00;8.82;;;;;;;10.24;100.00;99777.84;5112296;27;20503;-63
2023/11/06 08:25:28;;;;;;;28.52;7.53;;;;;;;10.07;100.00;99775.59;5112259;27;20140;-63
2023/11/06 08:28:16;;;;;;;26.30;7.30;;;;;;;10.08;100.00;99779.94;5111140;28;20104;-64
2023/11/06 08:31:04;;;;;;;17.40;4.53;;;;;;;9.92;100.00;99786.66;5100367;28;20101;-63
2023/11/06 08:33:54;;;;;;;21.13;6.03;;;;;;;9.90;100.00;99791.56;5105408;28;20047;-63
2023/11/06 08:36:45;;;;;;;27.95;8.27;;;;;;;10.02;100.00;99791.97;5104062;28;20039;-64
2023/11/06 08:39:33;;;;;;;31.20;8.10;;;;;;;10.09;100.00;99789.72;5092895;28;20046;-63
2023/11/06 08:42:21;;;;;;;18.70;4.30;;;;;;;10.05;100.00;99799.56;5105426;28;20051;-63
2023/11/06 08:45:10;;;;;;;14.82;4.53;;;;;;;9.80;100.00;99798.75;5110852;28;20403;-64
2023/11/06 08:47:58;;;;;;;16.55;3.80;;;;;;;9.73;100.00;99798.28;5113730;28;20078;-63
2023/11/06 08:50:46;;;;;;;15.27;3.70;;;;;;;9.71;100.00;99811.34;5112674;28;20048;-62
2023/11/06 08:53:34;;;;;;;22.05;4.78;;;;;;;9.72;100.00;99809.47;5115144;28;20059;-63
2023/11/06 08:56:23;;;;;;;23.52;6.05;;;;;;;9.95;100.00;99816.81;5101289;28;20060;-63
2023/11/06 08:59:12;;;;;;;25.50;6.68;;;;;;;10.13;100.00;99807.09;5074334;28;20048;-62
2023/11/06 09:02:01;;;;;;;16.17;4.47;;;;;;;10.10;100.00;99813.13;5101732;28;20039;-63
2023/11/06 09:04:50;;;;;;;26.05;6.75;;;;;;;10.31;100.00;99821.06;5107408;28;20044;-63
2023/11/06 09:07:38;;;;;;;19.48;6.10;;;;;;;10.19;100.00;99824.19;5119835;28;20138;-63
2023/11/06 09:10:27;;;;;;;31.00;8.70;;;;;;;10.33;100.00;99816.16;5100166;28;20067;-64
2023/11/06 09:13:16;;;;;;;26.33;7.88;;;;;;;10.37;100.00;99828.09;5115078;28;20040;-62
2023/11/06 09:16:04;;;;;;;17.30;4.05;;;;;;;10.23;100.00;99828.75;5098810;28;20507;-62
2023/11/06 09:18:52;;;;;;;24.20;6.97;;;;;;;10.40;100.00;99830.22;5114943;28;20039;-64
2023/11/06 09:21:40;;;;;;;18.02;4.57;;;;;;;10.15;100.00;99837.56;5085282;28;20120;-64
2023/11/06 09:24:29;;;;;;;20.30;5.82;;;;;;;10.23;100.00;99836.91;5085884;28;20050;-65
2023/11/06 09:27:17;;;;;;;14.80;4.90;;;;;;;10.23;100.00;99839.63;5101610;28;20047;-63
2023/11/06 09:30:08;;;;;;;21.63;5.93;;;;;;;10.29;100.00;99836.88;5127943;27;20136;-63
2023/11/06 09:32:56;;;;;;;24.17;6.22;;;;;;;10.64;100.00;99836.44;5115211;28;20097;-63
2023/11/06 09:35:45;;;;;;;18.80;4.88;;;;;;;10.65;100.00;99848.97;5106681;28;20184;-63
2023/11/06 09:38:34;;;;;;;13.50;4.18;;;;;;;10.45;100.00;99849.22;5099756;27;20123;-63
2023/11/06 09:41:22;;;;;;;17.67;4.93;;;;;;;10.46;100.00;99845.38;5134193;27;20495;-64
2023/11/06 09:44:11;;;;;;;16.55;4.30;;;;;;;10.44;100.00;99853.06;5127704;27;20096;-63
2023/11/06 09:47:01;;;;;;;17.52;5.45;;;;;;;10.45;100.00;99857.41;5072830;27;20035;-62
2023/11/06 09:50:06;;;;;;;16.48;4.18;;;;;;;10.29;100.00;99855.94;5059660;28;20036;-62
2023/11/06 09:52:54;;;;;;;16.20;4.60;;;;;;;10.30;100.00;99860.31;5080498;28;20051;-62
2023/11/06 09:55:42;;;;;;;14.95;4.43;;;;;;;10.28;100.00;99867.91;5064657;28;20059;-63
2023/11/06 09:58:30;;;;;;;15.52;4.55;;;;;;;10.38;100.00;99868.63;5119656;28;20043;-63
2023/11/06 10:01:20;;;;;;;14.45;4.28;;;;;;;10.33;100.00;99873.34;5130361;27;20173;-62
2023/11/06 10:04:09;;;;;;;20.88;5.00;;;;;;;10.49;100.00;99872.06;5100772;28;20059;-63
2023/11/06 10:06:57;;;;;;;14.20;3.97;;;;;;;10.47;100.00;99879.72;5115560;28;20511;-62
2023/11/06 10:09:45;;;;;;;19.50;5.03;;;;;;;10.38;100.00;99882.25;5114769;27;20395;-63
2023/11/06 10:12:33;;;;;;;16.38;4.88;;;;;;;10.44;100.00;99888.47;5124201;27;20062;-63
2023/11/06 10:15:25;;;;;;;17.48;4.63;;;;;;;10.55;100.00;99895.41;5124828;27;20110;-63
2023/11/06 10:18:21;;;;;;;19.35;4.30;;;;;;;10.44;100.00;99902.09;5098715;28;20040;-63
2023/11/06 10:21:09;;;;;;;18.48;4.65;;;;;;;10.44;100.00;99896.63;5078717;28;20506;-63
2023/11/06 10:24:01;;;;;;;13.13;4.40;;;;;;;10.47;100.00;99904.22;5085908;28;20126;-62
2023/11/06 10:26:49;;;;;;;14.65;3.95;;;;;;;10.50;100.00;99902.81;5085621;28;20066;-63
2023/11/06 10:29:38;;;;;;;13.02;4.00;;;;;;;10.48;100.00;99900.38;5114114;27;20056;-66
2023/11/06 10:32:27;;;;;;;12.15;3.85;;;;;;;10.47;100.00;99904.22;5116305;27;20061;-65
2023/11/06 10:35:17;;;;;;;14.38;3.70;;;;;;;10.57;100.00;99898.63;5114652;28;20047;-64
2023/11/06 10:38:05;;;;;;;10.60;3.45;;;;;;;10.63;100.00;99915.72;5086665;28;20059;-63
2023/11/06 10:40:54;;;;;;;19.02;4.80;;;;;;;10.78;100.00;99898.41;5095576;28;20461;-63
2023/11/06 10:43:44;;;;;;;14.00;4.03;;;;;;;10.50;100.00;99903.63;5105547;28;20055;-64
2023/11/06 10:46:47;;;;;;;16.50;4.47;;;;;;;10.33;100.00;99893.19;5099513;28;20071;-64
2023/11/06 10:50:03;;;;;;;12.80;3.60;;;;;;;10.31;100.00;99900.03;5113860;28;20136;-65
2023/11/06 10:52:59;;;;;;;19.90;4.57;;;;;;;10.30;100.00;99898.44;5097988;28;20043;-64
2023/11/06 10:55:49;;;;;;;14.43;4.18;;;;;;;10.31;100.00;99902.75;5077736;28;20569;-63
2023/11/06 10:58:38;;;;;;;18.67;4.18;;;;;;;10.34;100.00;99907.63;5064550;28;20044;-63
2023/11/06 11:01:30;;;;;;;17.63;3.85;;;;;;;10.36;100.00;99917.13;5101820;28;20047;-62
2023/11/06 11:04:18;;;;;;;15.75;4.13;;;;;;;10.38;100.00;99911.41;5091332;28;20060;-64
2023/11/06 11:07:06;;;;;;;18.55;4.43;;;;;;;10.39;100.00;99911.13;5088474;28;20491;-65
2023/11/06 11:09:55;;;;;;;16.17;4.20;;;;;;;10.43;100.00;99903.97;5115036;28;20040;-64
2023/11/06 11:12:51;;;;;;;12.52;3.20;;;;;;;10.50;100.00;99898.19;5085126;28;20072;-62
2023/11/06 11:15:41;;;;;;;16.88;4.38;;;;;;;10.62;100.00;99904.03;5106321;28;20047;-63
2023/11/06 11:18:30;;;;;;;;;;;;;;;10.67;100.00;99919.50;4436259;28;10001874;-64
2023/11/06 11:21:18;;;;;;;16.20;3.80;;;;;;;10.63;100.00;99913.84;5103132;28;20079;-64
2023/11/06 11:24:45;;;;;;;11.40;3.70;;;;;;;10.71;100.00;99917.81;5093743;28;20143;-64
2023/11/06 11:27:34;;;;;;;15.60;3.60;;;;;;;10.92;100.00;99899.31;5107694;28;20130;-64
2023/11/06 11:30:31;;;;;;;12.63;3.35;;;;;;;10.87;100.00;99916.53;5093277;28;20126;-64
2023/11/06 11:33:56;;;;;;;15.07;4.40;;;;;;;10.98;100.00;99913.66;5097927;28;20463;-63
2023/11/06 11:36:45;;;;;;;18.63;4.68;;;;;;;11.13;100.00;99901.75;5111445;28;20038;-64
2023/11/06 11:39:51;;;;;;;14.77;4.43;;;;;;;11.09;100.00;99915.97;5084867;28;20491;-64
2023/11/06 11:42:39;;;;;;;14.10;3.83;;;;;;;11.09;100.00;99910.53;5096969;28;20039;-64
2023/11/06 11:45:31;;;;;;;15.02;4.25;;;;;;;10.95;100.00;99920.53;5083649;28;20044;-64
2023/11/06 11:48:19;;;;;;;20.80;4.43;;;;;;;10.86;100.00;99917.63;5093303;28;20583;-64
2023/11/06 11:51:07;;;;;;;13.88;3.50;;;;;;;10.86;100.00;99916.81;5084649;28;20051;-62
2023/11/06 11:53:55;;;;;;;12.55;3.55;;;;;;;10.86;100.00;99922.28;5104721;28;20139;-61
2023/11/06 11:56:51;;;;;;;15.27;3.88;;;;;;;10.83;100.00;99917.41;5102941;28;20051;-65
2023/11/06 11:59:49;;;;;;;17.55;4.22;;;;;;;10.80;100.00;99917.97;5118879;27;20432;-63
2023/11/06 12:02:38;;;;;;;18.27;4.28;;;;;;;10.74;100.00;99921.88;5124210;27;20035;-63
2023/11/06 12:05:26;;;;;;;14.68;3.90;;;;;;;10.73;100.00;99926.53;5113168;27;20463;-63
2023/11/06 12:08:19;;;;;;;17.20;4.03;;;;;;;10.76;100.00;99917.75;5106166;28;20042;-63
2023/11/06 12:11:08;;;;;;;14.60;3.83;;;;;;;10.80;100.00;99924.25;5103497;28;20054;-63
2023/11/06 12:13:57;;;;;;;13.73;3.50;;;;;;;10.82;100.00;99915.78;5118073;28;20039;-63
2023/11/06 12:16:52;;;;;;;17.25;4.35;;;;;;;10.81;100.00;99914.97;5102476;28;20135;-64
2023/11/06 12:19:55;;;;;;;17.55;4.25;;;;;;;10.83;100.00;99922.88;5100385;28;20517;-63
2023/11/06 12:22:47;;;;;;;14.07;3.97;;;;;;;10.82;100.00;99923.94;5104212;27;20040;-63
2023/11/06 12:25:39;;;;;;;9.85;3.17;;;;;;;10.94;100.00;99921.59;5091399;27;20062;-63
2023/11/06 12:28:29;;;;;;;16.50;3.63;;;;;;;11.03;100.00;99910.88;5105686;27;20050;-62
2023/11/06 12:31:23;;;;;;;10.70;3.00;;;;;;;11.12;100.00;99919.22;5120035;27;20134;-62
2023/11/06 12:34:22;;;;;;;11.85;3.15;;;;;;;11.20;100.00;99922.06;5116904;27;20044;-62
2023/11/06 12:37:10;;;;;;;15.35;3.63;;;;;;;11.16;100.00;99929.25;5108558;27;20040;-63
2023/11/06 12:40:17;;;;;;;17.15;4.32;;;;;;;11.16;100.00;99925.69;5081003;28;20479;-63
2023/11/06 12:43:07;;;;;;;13.30;3.40;;;;;;;11.18;100.00;99923.47;5115114;28;20550;-62
2023/11/06 12:46:02;;;;;;;11.27;3.40;;;;;;;11.22;100.00;99927.25;5115862;27;20580;-62
2023/11/06 12:48:51;;;;;;;11.63;3.60;;;;;;;11.25;100.00;99934.84;5100538;28;20483;-64
2023/11/06 12:51:40;;;;;;;13.52;3.35;;;;;;;11.28;100.00;99928.78;5100829;28;20035;-64
2023/11/06 12:54:28;;;;;;;12.43;3.88;;;;;;;11.31;100.00;99939.13;5110229;28;20044;-62
2023/11/06 12:57:18;;;;;;;13.30;3.33;;;;;;;11.33;100.00;99942.38;5114296;28;20441;-64
2023/11/06 13:00:15;;;;;;;14.48;3.60;;;;;;;11.33;100.00;99958.72;5099522;28;20050;-64
2023/11/06 13:03:03;;;;;;;12.55;3.08;;;;;;;11.34;100.00;99960.34;5072796;28;20068;-63
2023/11/06 13:05:52;;;;;;;9.75;2.83;;;;;;;11.34;100.00;99957.63;5099039;28;20054;-63
2023/11/06 13:08:40;;;;;;;9.45;2.90;;;;;;;11.23;100.00;99958.84;5102993;28;20099;-63
2023/11/06 13:11:29;;;;;;;11.50;3.35;;;;;;;11.14;100.00;99960.63;5100193;28;20415;-63